Time;durP1;ratioP1;P1;durP2;ratioP2;P2;SDS_P1;SDS_P2;PMS_P1;PMS_P2;Temp;Humidity;BMP_temperature;BMP_pressure;BME280_temperature;BME280_humidity;BME280_pressure;Samples;Min_cycle;Max_cycle;Signal;HPM_P1;HPM_P2
2021/06/16 00:00:12;;;;;;;14.27;12.77;;;;;;;18.67;71.94;100912.75;4964350;28;20031;-74
2021/06/16 00:02:41;;;;;;;17.23;15.43;;;;;;;18.66;71.89;100921.69;4947214;28;20150;-75
2021/06/16 00:05:12;;;;;;;18.70;16.08;;;;;;;18.62;72.28;100918.22;4962168;28;20039;-74
2021/06/16 00:07:37;;;;;;;16.15;14.45;;;;;;;18.63;72.56;100924.47;4961786;28;20035;-74
2021/06/16 00:10:06;;;;;;;13.13;11.80;;;;;;;18.62;72.62;100930.72;4964141;28;20460;-74
2021/06/16 00:12:31;;;;;;;11.15;9.88;;;;;;;18.56;72.85;100930.94;4962668;28;20039;-74
2021/06/16 00:14:57;;;;;;;10.70;9.63;;;;;;;18.55;72.28;100931.88;4963708;28;20603;-74
2021/06/16 00:17:22;;;;;;;12.70;10.07;;;;;;;18.52;72.45;100929.28;4963189;28;20118;-74
2021/06/16 00:19:48;;;;;;;13.27;10.40;;;;;;;18.49;72.54;100926.72;4963413;28;20549;-74
2021/06/16 00:22:13;;;;;;;10.95;9.43;;;;;;;18.45;72.68;100939.31;4963435;28;20039;-74
2021/06/16 00:24:38;;;;;;;12.77;10.05;;;;;;;18.46;72.74;100934.84;4962541;28;20018;-74
2021/06/16 00:27:04;;;;;;;11.70;10.23;;;;;;;18.44;72.66;100932.19;4963958;28;20138;-74
2021/06/16 00:29:30;;;;;;;16.60;13.25;;;;;;;18.42;72.86;100931.41;4944839;28;20038;-74
2021/06/16 00:31:55;;;;;;;11.63;10.45;;;;;;;18.43;72.46;100937.63;4964489;28;20427;-74
2021/06/16 00:34:21;;;;;;;12.50;11.20;;;;;;;18.39;73.01;100932.38;4961235;28;20056;-74
2021/06/16 00:36:46;;;;;;;13.23;9.50;;;;;;;18.35;73.02;100928.03;4964786;28;20137;-73
2021/06/16 00:39:11;;;;;;;12.10;9.63;;;;;;;18.35;73.05;100932.53;4961368;28;20050;-74
2021/06/16 00:41:37;;;;;;;12.00;9.73;;;;;;;18.35;72.95;100933.38;4964570;28;20093;-74
2021/06/16 00:44:04;;;;;;;12.27;10.05;;;;;;;18.31;72.96;100930.84;4961784;28;20562;-74
2021/06/16 00:46:30;;;;;;;12.13;10.65;;;;;;;18.26;73.30;100924.78;4963566;28;20046;-74
2021/06/16 00:48:55;;;;;;;10.70;9.60;;;;;;;18.21;73.35;100927.63;4962684;28;20042;-74
2021/06/16 00:51:21;;;;;;;10.90;9.75;;;;;;;18.12;73.62;100930.56;4957925;28;20031;-74
2021/06/16 00:53:46;;;;;;;13.07;10.20;;;;;;;18.04;73.77;100932.59;4963227;28;20077;-74
2021/06/16 00:56:12;;;;;;;11.55;9.40;;;;;;;18.01;73.60;100933.56;4962256;28;20043;-74
2021/06/16 00:58:37;;;;;;;11.75;10.40;;;;;;;18.02;73.60;100931.75;4963480;28;20046;-74
2021/06/16 01:01:12;;;;;;;11.95;10.73;;;;;;;17.99;73.73;100930.06;4961944;28;20054;-74
2021/06/16 01:03:57;;;;;;;13.05;11.75;;;;;;;17.90;74.31;100927.69;4961242;28;20404;-74
2021/06/16 01:06:29;;;;;;;11.27;10.02;;;;;;;17.86;74.20;100934.91;4961125;28;20079;-74
2021/06/16 01:09:18;;;;;;;12.63;11.30;;;;;;;17.77;74.43;100936.94;4961570;28;20074;-74
2021/06/16 01:11:55;;;;;;;13.52;11.48;;;;;;;17.74;74.11;100928.09;4957297;28;20123;-74
2021/06/16 01:14:29;;;;;;;12.10;9.82;;;;;;;17.67;74.30;100936.34;4962081;28;20050;-74
2021/06/16 01:16:58;;;;;;;15.35;10.73;;;;;;;17.64;74.40;100939.09;4964276;28;20035;-74
2021/06/16 01:19:42;;;;;;;12.30;10.98;;;;;;;17.53;75.33;100932.28;4957448;28;20802;-74
2021/06/16 01:22:23;;;;;;;13.48;11.50;;;;;;;17.49;75.12;100935.06;4964269;28;20048;-74
2021/06/16 01:24:52;;;;;;;13.48;11.15;;;;;;;17.47;75.16;100935.09;4965846;28;20043;-74
2021/06/16 01:27:18;;;;;;;13.15;11.73;;;;;;;17.46;75.10;100936.03;4949074;28;20486;-74
2021/06/16 01:29:45;;;;;;;13.15;11.25;;;;;;;17.46;74.92;100932.50;4967224;28;20053;-74
2021/06/16 01:32:10;;;;;;;12.93;11.38;;;;;;;17.45;75.16;100931.63;4965295;28;20046;-74
2021/06/16 01:34:36;;;;;;;13.30;10.93;;;;;;;17.33;75.39;100934.63;4967491;28;20039;-74
2021/06/16 01:37:02;;;;;;;14.57;11.52;;;;;;;17.29;75.76;100930.28;4964651;28;20031;-74
2021/06/16 01:39:33;;;;;;;13.07;11.23;;;;;;;17.29;75.47;100935.59;4964486;28;20688;-74
2021/06/16 01:42:05;;;;;;;16.17;11.90;;;;;;;17.28;75.47;100934.75;4967077;28;20031;-74
2021/06/16 01:44:32;;;;;;;10.82;9.63;;;;;;;17.24;75.63;100935.75;4966262;28;20039;-74
2021/06/16 01:46:59;;;;;;;14.68;10.50;;;;;;;17.14;76.02;100939.59;4965376;28;20038;-74
2021/06/16 01:49:27;;;;;;;14.43;11.05;;;;;;;17.08;76.00;100937.97;4967457;28;20117;-74
2021/06/16 01:51:54;;;;;;;13.50;10.20;;;;;;;17.06;76.13;100930.91;4964104;28;20514;-74
2021/06/16 01:54:20;;;;;;;13.52;10.73;;;;;;;17.05;76.42;100931.81;4967241;28;20039;-74
2021/06/16 01:56:47;;;;;;;13.93;10.98;;;;;;;17.02;76.15;100930.09;4932602;28;20043;-74
2021/06/16 01:59:13;;;;;;;14.00;12.07;;;;;;;16.97;77.49;100934.69;4966706;28;20074;-74
2021/06/16 02:01:39;;;;;;;13.18;11.40;;;;;;;16.96;77.71;100942.75;4965588;28;20110;-74
2021/06/16 02:04:05;;;;;;;14.57;12.95;;;;;;;16.95;77.96;100936.53;4965640;28;20041;-74
2021/06/16 02:06:38;;;;;;;12.57;11.27;;;;;;;16.95;78.36;100928.53;4965864;28;20131;-74
2021/06/16 02:09:05;;;;;;;14.85;11.63;;;;;;;16.96;78.18;100935.59;4964327;28;20035;-74
2021/06/16 02:11:36;;;;;;;15.52;11.73;;;;;;;16.96;78.50;100924.94;4960246;28;20479;-74
2021/06/16 02:14:02;;;;;;;15.05;12.85;;;;;;;16.98;78.76;100927.59;4966408;28;20053;-74
2021/06/16 02:16:40;;;;;;;15.07;13.48;;;;;;;16.95;79.73;100920.53;4964963;28;20566;-74
2021/06/16 02:19:15;;;;;;;14.43;12.93;;;;;;;16.97;79.13;100921.34;4964061;28;20090;-74
2021/06/16 02:21:41;;;;;;;13.98;12.57;;;;;;;16.96;79.23;100924.94;4962347;28;20031;-74
2021/06/16 02:24:08;;;;;;;15.07;13.48;;;;;;;16.96;78.69;100929.41;4965796;28;20077;-73
2021/06/16 02:26:35;;;;;;;14.07;11.98;;;;;;;16.95;78.82;100924.97;4948355;28;20484;-73
2021/06/16 02:29:00;;;;;;;15.02;11.75;;;;;;;16.97;78.73;100925.81;4964995;28;20046;-73
2021/06/16 02:31:25;;;;;;;17.30;12.95;;;;;;;16.98;78.46;100920.47;4965891;28;20046;-73
2021/06/16 02:33:52;;;;;;;14.32;12.93;;;;;;;16.99;78.32;100916.84;4963401;28;20035;-73
2021/06/16 02:36:21;;;;;;;16.95;15.32;;;;;;;17.01;78.14;100916.84;4966362;28;20077;-73
2021/06/16 02:38:52;;;;;;;26.90;24.00;;;;;;;17.03;78.12;100918.53;4958516;28;20049;-73
2021/06/16 02:41:18;;;;;;;28.47;25.60;;;;;;;17.04;77.99;100920.28;4966031;28;20142;-73
2021/06/16 02:43:44;;;;;;;31.63;28.15;;;;;;;17.05;77.89;100915.81;4964660;28;20362;-73
2021/06/16 02:46:11;;;;;;;28.65;25.63;;;;;;;17.08;77.64;100926.41;4964812;28;20039;-73
2021/06/16 02:48:41;;;;;;;31.05;27.80;;;;;;;17.09;77.43;100923.69;4965420;28;20040;-73
2021/06/16 02:51:06;;;;;;;29.88;26.83;;;;;;;17.09;77.50;100918.38;4966898;28;20084;-73
2021/06/16 02:53:34;;;;;;;26.15;23.30;;;;;;;17.09;77.42;100921.03;4963468;28;20559;-73
2021/06/16 02:56:04;;;;;;;26.55;23.85;;;;;;;17.09;77.28;100928.16;4961809;28;20090;-73
2021/06/16 02:58:33;;;;;;;27.05;24.35;;;;;;;17.10;77.49;100921.91;4965811;28;20034;-73
2021/06/16 03:01:05;;;;;;;27.85;25.05;;;;;;;17.13;76.90;100927.16;4964543;28;20038;-73
2021/06/16 03:03:31;;;;;;;27.73;25.05;;;;;;;17.12;77.11;100920.06;4963617;28;20046;-73
2021/06/16 03:05:59;;;;;;;24.60;22.10;;;;;;;17.13;76.71;100921.81;4948253;28;20138;-74
2021/06/16 03:08:26;;;;;;;26.55;23.77;;;;;;;17.14;76.80;100925.38;4962712;28;20046;-74
2021/06/16 03:10:53;;;;;;;30.30;24.73;;;;;;;17.14;76.49;100923.59;4956748;28;20027;-74
2021/06/16 03:13:19;;;;;;;28.30;25.27;;;;;;;17.17;76.43;100927.97;4963981;28;20058;-74
2021/06/16 03:15:46;;;;;;;25.75;23.13;;;;;;;17.20;76.31;100933.22;4963437;28;20030;-74
2021/06/16 03:18:14;;;;;;;27.77;24.88;;;;;;;17.21;76.46;100937.63;4964151;28;20069;-74
2021/06/16 03:20:40;;;;;;;26.95;24.23;;;;;;;17.24;76.39;100934.88;4964014;28;20470;-74
2021/06/16 03:23:07;;;;;;;27.13;24.00;;;;;;;17.25;76.46;100928.63;4965158;28;20146;-74
2021/06/16 03:25:33;;;;;;;26.60;23.80;;;;;;;17.28;76.35;100923.19;4959379;28;20038;-74
2021/06/16 03:27:59;;;;;;;24.20;21.52;;;;;;;17.31;75.94;100928.44;4957577;28;20133;-74
2021/06/16 03:30:25;;;;;;;25.15;22.45;;;;;;;17.34;75.68;100930.16;4965584;28;20113;-74
2021/06/16 03:32:53;;;;;;;25.67;22.92;;;;;;;17.35;75.87;100927.47;4962269;28;20035;-74
2021/06/16 03:35:19;;;;;;;25.35;22.65;;;;;;;17.36;75.87;100931.00;4947621;28;20042;-74
2021/06/16 03:37:46;;;;;;;22.67;20.33;;;;;;;17.38;75.63;100922.03;4963304;28;20079;-73
2021/06/16 03:40:14;;;;;;;24.60;21.40;;;;;;;17.41;75.29;100926.41;4961439;28;20035;-73
2021/06/16 03:42:41;;;;;;;28.98;23.10;;;;;;;17.43;75.28;100929.91;4959845;28;20027;-74
2021/06/16 03:45:08;;;;;;;23.27;20.23;;;;;;;17.44;75.01;100929.84;4964438;28;20447;-74
2021/06/16 03:47:36;;;;;;;22.90;20.48;;;;;;;17.44;75.00;100932.53;4962450;28;20070;-74
2021/06/16 03:50:03;;;;;;;23.92;20.65;;;;;;;17.46;75.10;100933.34;4965520;28;20034;-74
2021/06/16 03:52:31;;;;;;;25.00;21.90;;;;;;;17.49;75.00;100927.06;4962315;28;20039;-74
2021/06/16 03:54:57;;;;;;;21.83;19.60;;;;;;;17.55;74.50;100931.34;4964085;28;20062;-76
2021/06/16 03:57:24;;;;;;;22.33;19.90;;;;;;;17.59;74.56;100930.34;4963257;28;20081;-74
2021/06/16 03:59:50;;;;;;;20.40;18.33;;;;;;;17.64;74.21;100923.97;4963805;28;20030;-74
2021/06/16 04:02:18;;;;;;;22.38;18.42;;;;;;;17.68;73.63;100930.06;4963818;28;20109;-74
2021/06/16 04:04:44;;;;;;;21.13;18.10;;;;;;;17.72;73.51;100926.41;4962269;28;20038;-74
2021/06/16 04:07:13;;;;;;;20.05;18.05;;;;;;;17.75;73.56;100928.97;4964663;28;20229;-74
2021/06/16 04:09:39;;;;;;;20.55;18.40;;;;;;;17.82;73.20;100929.72;4961430;28;20418;-74
2021/06/16 04:12:05;;;;;;;19.88;17.42;;;;;;;17.85;72.82;100925.16;4947535;28;20027;-74
2021/06/16 04:14:30;;;;;;;19.52;15.52;;;;;;;17.89;72.43;100932.16;4961835;28;20047;-74
2021/06/16 04:16:56;;;;;;;20.25;15.88;;;;;;;17.96;72.39;100935.50;4964209;28;20042;-74
2021/06/16 04:19:22;;;;;;;19.45;16.20;;;;;;;18.01;71.91;100941.59;4962696;28;20043;-74
2021/06/16 04:21:47;;;;;;;18.33;16.40;;;;;;;18.11;71.78;100942.19;4946266;28;20123;-74
2021/06/16 04:24:12;;;;;;;16.08;14.35;;;;;;;18.15;71.61;100936.69;4962723;28;20050;-74
2021/06/16 04:26:38;;;;;;;16.77;15.05;;;;;;;18.23;71.16;100935.56;4962975;28;20046;-74
2021/06/16 04:29:03;;;;;;;19.17;16.48;;;;;;;18.27;70.66;100930.09;4963462;28;20035;-73
2021/06/16 04:31:29;;;;;;;19.25;16.00;;;;;;;18.33;70.68;100935.22;4956491;28;20025;-74
2021/06/16 04:33:54;;;;;;;18.75;14.93;;;;;;;18.37;70.44;100933.34;4958061;28;20058;-74
2021/06/16 04:36:20;;;;;;;15.20;13.60;;;;;;;18.40;70.04;100926.09;4957979;28;20558;-74
2021/06/16 04:38:45;;;;;;;17.77;14.48;;;;;;;18.43;69.70;100935.81;4963638;28;20043;-74
2021/06/16 04:41:10;;;;;;;16.40;13.48;;;;;;;18.45;69.51;100927.75;4961388;28;20094;-74
2021/06/16 04:43:36;;;;;;;14.27;12.82;;;;;;;18.50;69.75;100926.69;4964701;28;20041;-73
2021/06/16 04:46:02;;;;;;;17.17;13.27;;;;;;;18.58;69.06;100923.75;4925778;28;20043;-73
2021/06/16 04:48:27;;;;;;;17.88;14.68;;;;;;;18.61;68.84;100923.66;4946337;28;20034;-73
2021/06/16 04:50:53;;;;;;;16.05;13.32;;;;;;;18.65;68.55;100922.59;4944363;28;20031;-73
2021/06/16 04:53:19;;;;;;;16.58;12.75;;;;;;;18.68;68.43;100930.56;4963530;28;20510;-74
2021/06/16 04:55:45;;;;;;;15.35;12.23;;;;;;;18.73;68.09;100925.03;4961483;28;20098;-74
2021/06/16 04:58:10;;;;;;;14.43;12.93;;;;;;;18.79;67.74;100917.72;4962749;28;20050;-74
2021/06/16 05:00:35;;;;;;;16.02;14.25;;;;;;;18.81;67.81;100926.56;4962845;28;20078;-74
2021/06/16 05:03:01;;;;;;;15.40;13.80;;;;;;;18.88;67.51;100921.00;4958412;28;20042;-74
2021/06/16 05:05:27;;;;;;;16.65;14.57;;;;;;;18.93;67.19;100922.59;4961616;28;20043;-74
2021/06/16 05:07:53;;;;;;;19.27;15.18;;;;;;;19.01;66.86;100922.31;4963616;28;20035;-74
2021/06/16 05:10:19;;;;;;;14.45;12.85;;;;;;;19.05;66.36;100913.28;4961311;28;20038;-74
2021/06/16 05:12:44;;;;;;;18.38;16.35;;;;;;;19.11;66.22;100917.53;4964341;28;20427;-74
2021/06/16 05:15:11;;;;;;;16.90;13.95;;;;;;;19.17;66.31;100915.50;4960387;28;20071;-74
2021/06/16 05:17:38;;;;;;;13.60;11.00;;;;;;;19.19;65.28;100915.44;4964122;28;20038;-74
2021/06/16 05:20:03;;;;;;;18.88;13.65;;;;;;;19.23;64.93;100917.06;4961437;28;20487;-74
2021/06/16 05:22:29;;;;;;;13.05;11.60;;;;;;;19.30;65.22;100917.75;4963213;28;20086;-74
2021/06/16 05:24:55;;;;;;;12.35;10.57;;;;;;;19.35;64.82;100915.78;4961520;28;20090;-74
2021/06/16 05:27:20;;;;;;;14.13;12.13;;;;;;;19.35;63.84;100913.97;4963024;28;20453;-74
2021/06/16 05:29:46;;;;;;;15.15;11.60;;;;;;;19.44;63.97;100918.09;4962437;28;20129;-74
2021/06/16 05:32:12;;;;;;;11.77;10.20;;;;;;;19.56;63.95;100919.47;4960617;28;20031;-74
2021/06/16 05:34:38;;;;;;;14.45;11.77;;;;;;;19.62;63.46;100922.78;4961367;28;20051;-74
2021/06/16 05:37:07;;;;;;;12.77;11.45;;;;;;;19.65;62.93;100921.81;4963259;28;20533;-74
2021/06/16 05:39:32;;;;;;;13.07;10.55;;;;;;;19.60;63.03;100921.97;4960582;28;20396;-74
2021/06/16 05:41:59;;;;;;;14.98;11.02;;;;;;;19.64;62.76;100923.59;4928180;28;20038;-74
2021/06/16 05:44:24;;;;;;;13.52;11.27;;;;;;;19.73;62.86;100918.84;4957586;28;20094;-74
2021/06/16 05:46:49;;;;;;;11.77;9.88;;;;;;;19.78;62.45;100919.53;4957039;28;20093;-74
2021/06/16 05:49:14;;;;;;;11.57;9.30;;;;;;;19.82;62.65;100926.53;4959799;28;20028;-74
2021/06/16 05:51:40;;;;;;;12.77;9.23;;;;;;;19.86;61.81;100920.16;4962775;28;20169;-74
2021/06/16 05:54:10;;;;;;;11.80;8.77;;;;;;;19.92;61.86;100923.44;4961593;28;20129;-74
2021/06/16 05:56:38;;;;;;;12.00;10.70;;;;;;;20.01;61.16;100916.84;4961192;28;20106;-74
2021/06/16 05:59:04;;;;;;;13.07;9.70;;;;;;;20.09;61.10;100914.75;4960051;28;20039;-74
2021/06/16 06:01:29;;;;;;;9.95;8.82;;;;;;;20.14;60.69;100912.75;4963399;28;20033;-74
2021/06/16 06:03:55;;;;;;;11.80;8.57;;;;;;;20.20;60.35;100918.81;4939872;28;20127;-73
2021/06/16 06:06:20;;;;;;;15.60;11.00;;;;;;;20.24;60.50;100909.72;4963425;28;20118;-73
2021/06/16 06:08:46;;;;;;;10.80;9.40;;;;;;;20.31;60.00;100913.91;4962390;28;20030;-74
2021/06/16 06:11:11;;;;;;;12.70;9.77;;;;;;;20.38;59.85;100917.19;4966994;28;20539;-73
2021/06/16 06:13:36;;;;;;;11.45;9.75;;;;;;;20.47;60.00;100911.47;4964392;28;20046;-74
2021/06/16 06:16:02;;;;;;;11.85;9.43;;;;;;;20.57;59.39;100919.09;4966136;28;20518;-74
2021/06/16 06:18:27;;;;;;;11.13;9.20;;;;;;;20.64;59.10;100918.84;4964731;28;20411;-74
2021/06/16 06:20:53;;;;;;;12.32;8.68;;;;;;;20.73;59.11;100910.41;4965955;28;20109;-74
2021/06/16 06:23:18;;;;;;;12.95;8.30;;;;;;;20.89;58.94;100910.63;4965331;28;20062;-73
2021/06/16 06:25:44;;;;;;;11.38;7.45;;;;;;;20.90;58.18;100907.88;4965016;28;20039;-74
2021/06/16 06:28:09;;;;;;;12.30;7.93;;;;;;;20.98;58.34;100915.59;4965654;28;20031;-74
2021/06/16 06:30:35;;;;;;;9.52;6.82;;;;;;;21.05;58.19;100913.53;4964883;28;20035;-74
2021/06/16 06:33:00;;;;;;;10.82;8.77;;;;;;;21.19;57.57;100913.78;4966116;28;20121;-74
2021/06/16 06:35:25;;;;;;;11.85;8.27;;;;;;;21.30;57.23;100911.50;4964063;28;20043;-74
2021/06/16 06:37:51;;;;;;;7.90;6.22;;;;;;;21.39;57.06;100911.09;4966688;28;20046;-74
2021/06/16 06:40:16;;;;;;;9.88;8.18;;;;;;;21.50;56.70;100915.13;4963884;28;20038;-74
2021/06/16 06:42:42;;;;;;;8.32;7.43;;;;;;;21.60;56.70;100911.09;4966918;28;20526;-74
2021/06/16 06:45:08;;;;;;;11.02;9.13;;;;;;;21.69;56.09;100905.25;4963014;28;20122;-74
2021/06/16 06:47:33;;;;;;;11.27;7.60;;;;;;;21.77;55.47;100904.91;4949425;28;20556;-74
2021/06/16 06:49:59;;;;;;;9.32;7.40;;;;;;;21.87;54.88;100903.53;4963685;28;20043;-74
2021/06/16 06:52:24;;;;;;;14.98;9.10;;;;;;;21.92;55.12;100912.25;4965788;28;20042;-74
2021/06/16 06:54:50;;;;;;;14.15;9.00;;;;;;;22.02;54.34;100907.31;4964020;28;20039;-75
2021/06/16 06:57:15;;;;;;;8.85;7.00;;;;;;;22.15;54.54;100904.91;4945745;28;20384;-74
2021/06/16 06:59:40;;;;;;;10.00;6.80;;;;;;;22.27;53.90;100907.91;4962183;28;20038;-73
2021/06/16 07:02:07;;;;;;;8.93;7.88;;;;;;;22.35;53.53;100902.16;4931112;28;20036;-74
2021/06/16 07:04:32;;;;;;;9.20;5.90;;;;;;;22.50;53.25;100896.00;4961696;28;20041;-74
2021/06/16 07:06:58;;;;;;;13.27;6.35;;;;;;;22.62;53.30;100897.22;4960417;28;20046;-74
2021/06/16 07:09:24;;;;;;;10.40;5.78;;;;;;;22.66;52.10;100900.63;4965207;28;20035;-74
2021/06/16 07:11:50;;;;;;;12.07;6.20;;;;;;;22.76;51.84;100899.19;4961743;28;20086;-74
2021/06/16 07:14:16;;;;;;;13.85;7.75;;;;;;;22.88;51.90;100889.66;4965732;28;20049;-74
2021/06/16 07:16:42;;;;;;;10.85;6.32;;;;;;;22.94;51.33;100887.47;4961799;28;20039;-74
2021/06/16 07:19:07;;;;;;;12.15;6.70;;;;;;;23.05;51.38;100886.94;4960572;28;21316;-74
2021/06/16 07:21:33;;;;;;;12.43;4.55;;;;;;;23.11;50.97;100888.47;4964536;28;20031;-74
2021/06/16 07:23:58;;;;;;;7.78;6.53;;;;;;;23.21;51.03;100886.16;4963044;28;20062;-74
2021/06/16 07:26:24;;;;;;;9.43;7.40;;;;;;;23.35;50.68;100884.47;4964650;28;20061;-74
2021/06/16 07:28:49;;;;;;;9.27;5.95;;;;;;;23.47;50.24;100882.91;4963677;28;20053;-74
2021/06/16 07:31:14;;;;;;;10.23;6.43;;;;;;;23.53;49.72;100882.59;4963981;28;20569;-74
2021/06/16 07:33:40;;;;;;;10.10;6.78;;;;;;;23.59;49.84;100884.94;4963953;28;20395;-74
2021/06/16 07:36:05;;;;;;;10.02;6.65;;;;;;;23.69;49.10;100881.75;4963293;28;20097;-74
2021/06/16 07:38:31;;;;;;;8.75;5.70;;;;;;;23.67;48.82;100884.53;4964546;28;20042;-74
2021/06/16 07:40:57;;;;;;;9.07;6.93;;;;;;;23.80;49.07;100882.06;4960891;28;20062;-74
2021/06/16 07:43:22;;;;;;;12.38;6.80;;;;;;;23.88;49.12;100882.50;4962474;28;20039;-74
2021/06/16 07:45:47;;;;;;;12.20;7.25;;;;;;;23.92;48.94;100876.00;4965096;28;20065;-73
2021/06/16 07:48:13;;;;;;;14.60;5.57;;;;;;;24.02;48.37;100879.88;4962000;28;20047;-74
2021/06/16 07:50:38;;;;;;;9.60;5.47;;;;;;;24.16;48.38;100875.56;4965300;28;20181;-74
2021/06/16 07:53:07;;;;;;;15.52;6.32;;;;;;;24.25;48.52;100880.41;4955274;28;20117;-73
2021/06/16 07:55:34;;;;;;;10.57;5.13;;;;;;;24.35;48.14;100876.22;4964024;28;20162;-74
2021/06/16 07:57:59;;;;;;;11.30;6.88;;;;;;;24.40;48.46;100879.53;4961862;28;20031;-74
2021/06/16 08:00:24;;;;;;;9.02;5.82;;;;;;;24.51;47.96;100883.44;4963305;28;20023;-74
2021/06/16 08:02:50;;;;;;;10.07;6.20;;;;;;;24.59;47.90;100878.47;4963417;28;20034;-74
2021/06/16 08:05:15;;;;;;;12.00;5.68;;;;;;;24.68;47.69;100880.59;4963383;28;20507;-75
2021/06/16 08:07:42;;;;;;;10.30;5.05;;;;;;;24.75;47.26;100883.81;4962922;28;20045;-74
2021/06/16 08:10:08;;;;;;;10.70;7.10;;;;;;;24.77;47.45;100873.81;4964398;28;20399;-74
2021/06/16 08:12:33;;;;;;;10.88;6.20;;;;;;;24.79;47.40;100870.06;4962214;28;20050;-74
2021/06/16 08:14:59;;;;;;;14.15;7.78;;;;;;;24.92;46.67;100871.06;4964807;28;20038;-74
2021/06/16 08:17:24;;;;;;;9.00;5.70;;;;;;;25.00;46.66;100872.44;4961441;28;20042;-74
2021/06/16 08:19:50;;;;;;;10.45;6.20;;;;;;;25.04;46.44;100866.72;4965279;28;20047;-74
2021/06/16 08:22:15;;;;;;;10.15;6.80;;;;;;;25.18;46.61;100875.84;4961818;28;20035;-73
2021/06/16 08:24:41;;;;;;;12.48;7.82;;;;;;;25.27;46.39;100876.13;4964122;28;20041;-74
2021/06/16 08:27:09;;;;;;;18.00;12.43;;;;;;;25.36;46.03;100867.47;4962216;28;20035;-74
2021/06/16 08:29:35;;;;;;;18.30;10.13;;;;;;;25.48;45.91;100867.66;4963417;28;20074;-74
2021/06/16 08:32:00;;;;;;;13.52;10.55;;;;;;;25.57;45.83;100875.16;4962355;28;20059;-74
2021/06/16 08:34:25;;;;;;;19.33;12.30;;;;;;;25.62;45.52;100870.34;4962518;28;20125;-74
2021/06/16 08:36:51;;;;;;;17.08;11.38;;;;;;;25.71;45.46;100863.50;4963635;28;20137;-74
2021/06/16 08:39:16;;;;;;;10.98;8.27;;;;;;;25.87;44.92;100863.41;4962256;28;20074;-74
2021/06/16 08:41:43;;;;;;;15.80;8.05;;;;;;;25.76;44.46;100872.19;4964086;28;20065;-74
2021/06/16 08:44:11;;;;;;;17.48;11.35;;;;;;;25.83;44.84;100870.78;4961471;28;20039;-74
2021/06/16 08:46:37;;;;;;;14.07;11.80;;;;;;;25.97;44.61;100867.25;4964692;28;20402;-74
2021/06/16 08:49:05;;;;;;;13.40;10.80;;;;;;;26.08;44.61;100867.41;4961834;28;20407;-74
2021/06/16 08:51:30;;;;;;;15.95;11.35;;;;;;;26.02;44.30;100860.56;4961599;28;20070;-74
2021/06/16 08:53:56;;;;;;;27.98;18.00;;;;;;;26.19;44.59;100864.00;4962079;28;20061;-73
2021/06/16 08:56:21;;;;;;;20.25;12.60;;;;;;;26.33;44.29;100865.75;4962954;28;20442;-74
2021/06/16 08:58:47;;;;;;;21.17;13.50;;;;;;;26.45;43.87;100863.09;4962797;28;20098;-74
2021/06/16 09:01:12;;;;;;;11.27;8.32;;;;;;;26.51;42.91;100853.69;4962510;28;20066;-73
2021/06/16 09:03:38;;;;;;;16.98;12.20;;;;;;;26.63;42.83;100861.03;4960817;28;20066;-74
2021/06/16 09:06:13;;;;;;;19.08;11.27;;;;;;;26.64;42.86;100851.94;4960593;28;20121;-74
2021/06/16 09:09:02;;;;;;;12.90;10.40;;;;;;;26.66;42.62;100858.09;4956954;28;20097;-74
2021/06/16 09:11:30;;;;;;;14.73;9.90;;;;;;;26.74;42.04;100863.00;4962771;28;20038;-74
2021/06/16 09:14:25;;;;;;;17.48;11.95;;;;;;;26.70;41.51;100857.88;4961140;28;20039;-74
2021/06/16 09:16:53;;;;;;;13.40;10.35;;;;;;;26.82;42.28;100857.06;4958743;28;20570;-74
2021/06/16 09:19:22;;;;;;;13.23;8.82;;;;;;;26.93;41.52;100851.75;4963079;28;20035;-74
2021/06/16 09:21:49;;;;;;;15.80;11.48;;;;;;;27.05;41.89;100853.63;4962931;28;20035;-74
2021/06/16 09:24:15;;;;;;;17.40;11.48;;;;;;;27.16;41.47;100857.41;4961355;28;20070;-74
2021/06/16 09:26:43;;;;;;;18.20;12.52;;;;;;;27.24;41.12;100841.50;4963905;28;20399;-74
2021/06/16 09:29:09;;;;;;;12.50;9.27;;;;;;;27.39;40.86;100844.97;4960939;28;20046;-74
2021/06/16 09:31:37;;;;;;;16.08;12.10;;;;;;;27.49;40.58;100846.91;4960752;28;20034;-74
2021/06/16 09:34:13;;;;;;;17.27;12.50;;;;;;;27.60;40.50;100848.84;4963640;28;20049;-74
2021/06/16 09:36:53;;;;;;;15.95;12.98;;;;;;;27.79;40.33;100845.66;4962883;28;20043;-74
2021/06/16 09:39:26;;;;;;;15.43;11.38;;;;;;;27.88;39.40;100842.31;4955735;28;20499;-74
2021/06/16 09:41:56;;;;;;;14.85;12.10;;;;;;;28.02;39.93;100848.56;4960141;28;20030;-74
2021/06/16 09:44:45;;;;;;;15.20;10.40;;;;;;;27.91;39.12;100846.63;4932933;28;20040;-74
2021/06/16 09:47:13;;;;;;;13.35;10.55;;;;;;;27.85;39.25;100842.53;4962281;28;20031;-75
2021/06/16 09:49:54;;;;;;;15.30;11.93;;;;;;;27.79;39.91;100834.81;4959352;28;20066;-74
2021/06/16 09:52:35;;;;;;;16.92;11.38;;;;;;;27.86;40.10;100833.41;4960241;28;20027;-74
2021/06/16 09:55:23;;;;;;;19.15;12.93;;;;;;;28.02;39.66;100835.00;4963814;28;20043;-74
2021/06/16 09:58:03;;;;;;;15.27;12.85;;;;;;;28.39;39.70;100833.94;4964480;28;20185;-75
2021/06/16 10:00:37;;;;;;;11.98;8.35;;;;;;;28.72;38.45;100824.22;4930903;28;20082;-74
2021/06/16 10:03:22;;;;;;;10.30;8.90;;;;;;;28.82;37.32;100821.66;4961308;28;20114;-74
2021/06/16 10:06:07;;;;;;;19.52;11.68;;;;;;;28.99;37.03;100820.31;4963705;28;20089;-73
2021/06/16 10:08:44;;;;;;;12.90;6.53;;;;;;;29.24;37.27;100825.56;4962387;28;20035;-74
2021/06/16 10:11:20;;;;;;;17.50;12.02;;;;;;;29.32;37.24;100813.19;4964544;28;20039;-74
2021/06/16 10:13:48;;;;;;;15.65;11.95;;;;;;;29.38;36.65;100820.88;4961878;28;20039;-74
2021/06/16 10:16:14;;;;;;;16.73;12.52;;;;;;;29.39;36.77;100817.16;4947957;28;20027;-74
2021/06/16 10:18:43;;;;;;;11.50;9.27;;;;;;;29.40;37.04;100805.31;4958679;28;20043;-73
2021/06/16 10:21:10;;;;;;;14.93;12.45;;;;;;;29.34;36.93;100805.78;4958338;28;20028;-74
2021/06/16 10:23:35;;;;;;;14.10;10.73;;;;;;;29.47;36.78;100804.69;4959856;28;20435;-74
2021/06/16 10:26:08;;;;;;;16.55;12.88;;;;;;;29.62;36.19;100798.97;4960143;28;20097;-74
2021/06/16 10:28:42;;;;;;;15.90;12.00;;;;;;;29.70;36.37;100801.97;4961673;28;20031;-74
2021/06/16 10:31:09;;;;;;;12.52;7.60;;;;;;;29.88;35.93;100805.00;4948091;28;20447;-74
2021/06/16 10:33:37;;;;;;;18.15;11.90;;;;;;;30.10;36.03;100799.53;4965778;28;20074;-74
2021/06/16 10:36:15;;;;;;;10.93;8.68;;;;;;;30.51;35.09;100797.00;4963833;28;20406;-74
2021/06/16 10:38:59;;;;;;;11.80;9.68;;;;;;;30.84;34.40;100804.16;4961951;28;20031;-74
2021/06/16 10:41:46;;;;;;;11.93;8.32;;;;;;;31.03;34.33;100794.38;4963632;28;20376;-74
2021/06/16 10:44:21;;;;;;;8.45;6.55;;;;;;;31.24;34.43;100797.91;4959869;28;20038;-74
2021/06/16 10:47:06;;;;;;;9.27;5.65;;;;;;;31.21;33.64;100790.00;4964208;28;20097;-73
2021/06/16 10:49:40;;;;;;;12.05;8.00;;;;;;;31.41;33.50;100783.66;4959523;28;20035;-74
2021/06/16 10:52:07;;;;;;;12.70;9.75;;;;;;;31.33;33.86;100783.44;4965325;28;20031;-75
2021/06/16 10:54:35;;;;;;;10.13;7.70;;;;;;;31.08;33.66;100779.31;4963604;28;20563;-74
2021/06/16 10:57:05;;;;;;;8.85;6.60;;;;;;;31.07;34.06;100780.31;4964383;28;20101;-74
2021/06/16 10:59:42;;;;;;;11.38;9.55;;;;;;;30.95;33.85;100779.53;4966083;28;20556;-75
2021/06/16 11:02:09;;;;;;;8.95;7.13;;;;;;;30.96;33.97;100770.34;4963848;28;21130;-75
2021/06/16 11:04:37;;;;;;;12.90;9.93;;;;;;;31.10;34.02;100776.44;4964236;28;20039;-75
2021/06/16 11:07:03;;;;;;;13.45;8.75;;;;;;;31.01;32.91;100767.22;4965214;28;20038;-75
2021/06/16 11:09:54;;;;;;;9.68;7.47;;;;;;;30.60;34.71;100768.97;4963848;28;20034;-75
2021/06/16 11:12:30;;;;;;;7.93;5.40;;;;;;;30.58;34.26;100763.66;4963873;28;20412;-74
2021/06/16 11:14:58;;;;;;;14.70;11.85;;;;;;;30.71;34.58;100759.88;4959417;28;20111;-74